sensor_id;sensor_type;location;lat;lon;timestamp;P1;durP1;ratioP1;P2;durP2;ratioP2
14619;SDS011;32125;48.518;9.050;2023-08-24T00:00:23;9.07;;;6.68;;
14619;SDS011;32125;48.518;9.050;2023-08-24T00:02:49;6.85;;;6.07;;
14619;SDS011;32125;48.518;9.050;2023-08-24T00:05:15;7.55;;;6.30;;
14619;SDS011;32125;48.518;9.050;2023-08-24T00:07:43;9.80;;;6.30;;
14619;SDS011;32125;48.518;9.050;2023-08-24T00:10:08;6.90;;;6.20;;
14619;SDS011;32125;48.518;9.050;2023-08-24T00:12:34;9.52;;;6.75;;
14619;SDS011;32125;48.518;9.050;2023-08-24T00:15:02;7.60;;;6.10;;
14619;SDS011;32125;48.518;9.050;2023-08-24T00:17:28;8.35;;;6.53;;
14619;SDS011;32125;48.518;9.050;2023-08-24T00:19:54;7.13;;;6.28;;
14619;SDS011;32125;48.518;9.050;2023-08-24T00:22:20;8.73;;;6.35;;
14619;SDS011;32125;48.518;9.050;2023-08-24T00:24:46;7.63;;;6.53;;
14619;SDS011;32125;48.518;9.050;2023-08-24T00:27:12;8.80;;;6.45;;
14619;SDS011;32125;48.518;9.050;2023-08-24T00:29:38;8.95;;;6.70;;
14619;SDS011;32125;48.518;9.050;2023-08-24T00:32:05;7.75;;;6.88;;
14619;SDS011;32125;48.518;9.050;2023-08-24T00:34:33;10.95;;;7.03;;
14619;SDS011;32125;48.518;9.050;2023-08-24T00:36:59;7.30;;;6.60;;
14619;SDS011;32125;48.518;9.050;2023-08-24T00:39:25;7.22;;;6.30;;
14619;SDS011;32125;48.518;9.050;2023-08-24T00:41:55;9.45;;;6.40;;
14619;SDS011;32125;48.518;9.050;2023-08-24T00:44:21;7.97;;;6.57;;
14619;SDS011;32125;48.518;9.050;2023-08-24T00:46:52;8.20;;;7.13;;
14619;SDS011;32125;48.518;9.050;2023-08-24T00:49:18;10.50;;;7.20;;
14619;SDS011;32125;48.518;9.050;2023-08-24T00:51:43;10.55;;;6.68;;
14619;SDS011;32125;48.518;9.050;2023-08-24T00:54:09;9.73;;;6.88;;
14619;SDS011;32125;48.518;9.050;2023-08-24T00:56:36;8.82;;;6.63;;
14619;SDS011;32125;48.518;9.050;2023-08-24T00:59:01;7.35;;;6.65;;
14619;SDS011;32125;48.518;9.050;2023-08-24T01:01:27;7.13;;;6.43;;
14619;SDS011;32125;48.518;9.050;2023-08-24T01:03:53;8.65;;;7.05;;
14619;SDS011;32125;48.518;9.050;2023-08-24T01:06:21;7.93;;;7.13;;
14619;SDS011;32125;48.518;9.050;2023-08-24T01:08:46;7.90;;;7.10;;
14619;SDS011;32125;48.518;9.050;2023-08-24T01:11:25;7.53;;;6.65;;
14619;SDS011;32125;48.518;9.050;2023-08-24T01:16:25;7.75;;;7.05;;
14619;SDS011;32125;48.518;9.050;2023-08-24T01:18:54;9.10;;;6.80;;
14619;SDS011;32125;48.518;9.050;2023-08-24T01:21:25;7.72;;;6.82;;
14619;SDS011;32125;48.518;9.050;2023-08-24T01:24:12;8.77;;;7.03;;
14619;SDS011;32125;48.518;9.050;2023-08-24T01:26:42;7.95;;;7.25;;
14619;SDS011;32125;48.518;9.050;2023-08-24T01:29:15;8.35;;;7.55;;
14619;SDS011;32125;48.518;9.050;2023-08-24T01:31:44;9.43;;;7.47;;
14619;SDS011;32125;48.518;9.050;2023-08-24T01:34:14;9.30;;;7.03;;
14619;SDS011;32125;48.518;9.050;2023-08-24T01:36:39;8.20;;;7.40;;
14619;SDS011;32125;48.518;9.050;2023-08-24T01:39:07;7.20;;;6.57;;
14619;SDS011;32125;48.518;9.050;2023-08-24T01:41:45;8.07;;;6.93;;
14619;SDS011;32125;48.518;9.050;2023-08-24T01:44:17;7.47;;;6.80;;
14619;SDS011;32125;48.518;9.050;2023-08-24T01:46:48;8.48;;;7.10;;
14619;SDS011;32125;48.518;9.050;2023-08-24T01:49:17;8.10;;;6.90;;
14619;SDS011;32125;48.518;9.050;2023-08-24T01:51:48;7.88;;;6.97;;
14619;SDS011;32125;48.518;9.050;2023-08-24T01:54:16;7.72;;;6.45;;
14619;SDS011;32125;48.518;9.050;2023-08-24T01:56:47;7.55;;;6.78;;
14619;SDS011;32125;48.518;9.050;2023-08-24T01:59:14;7.18;;;6.47;;
14619;SDS011;32125;48.518;9.050;2023-08-24T02:01:42;7.30;;;6.68;;
14619;SDS011;32125;48.518;9.050;2023-08-24T02:04:08;8.25;;;6.45;;
14619;SDS011;32125;48.518;9.050;2023-08-24T02:06:33;7.38;;;6.60;;
14619;SDS011;32125;48.518;9.050;2023-08-24T02:09:03;7.72;;;7.03;;
14619;SDS011;32125;48.518;9.050;2023-08-24T02:11:29;8.18;;;6.65;;
14619;SDS011;32125;48.518;9.050;2023-08-24T02:13:55;7.95;;;6.43;;
14619;SDS011;32125;48.518;9.050;2023-08-24T02:16:21;7.72;;;6.95;;
14619;SDS011;32125;48.518;9.050;2023-08-24T02:18:51;8.02;;;6.93;;
14619;SDS011;32125;48.518;9.050;2023-08-24T02:21:21;7.65;;;6.88;;
14619;SDS011;32125;48.518;9.050;2023-08-24T02:23:47;10.10;;;6.85;;
14619;SDS011;32125;48.518;9.050;2023-08-24T02:26:13;9.07;;;6.78;;
14619;SDS011;32125;48.518;9.050;2023-08-24T02:28:38;11.13;;;7.30;;
14619;SDS011;32125;48.518;9.050;2023-08-24T02:31:05;8.50;;;7.35;;
14619;SDS011;32125;48.518;9.050;2023-08-24T02:33:31;9.40;;;7.47;;
14619;SDS011;32125;48.518;9.050;2023-08-24T02:35:57;7.82;;;7.18;;
14619;SDS011;32125;48.518;9.050;2023-08-24T02:38:23;9.07;;;7.63;;
14619;SDS011;32125;48.518;9.050;2023-08-24T02:41:01;7.50;;;6.80;;
14619;SDS011;32125;48.518;9.050;2023-08-24T02:43:30;8.63;;;6.72;;
14619;SDS011;32125;48.518;9.050;2023-08-24T02:46:03;7.93;;;7.18;;
14619;SDS011;32125;48.518;9.050;2023-08-24T02:48:31;8.82;;;7.22;;
14619;SDS011;32125;48.518;9.050;2023-08-24T02:51:00;10.25;;;7.60;;
14619;SDS011;32125;48.518;9.050;2023-08-24T02:53:28;8.32;;;7.60;;
14619;SDS011;32125;48.518;9.050;2023-08-24T02:55:56;9.50;;;7.50;;
14619;SDS011;32125;48.518;9.050;2023-08-24T02:58:25;11.23;;;7.40;;
14619;SDS011;32125;48.518;9.050;2023-08-24T03:00:52;9.23;;;7.15;;
14619;SDS011;32125;48.518;9.050;2023-08-24T03:03:18;7.53;;;6.82;;
14619;SDS011;32125;48.518;9.050;2023-08-24T03:08:23;9.68;;;7.10;;
14619;SDS011;32125;48.518;9.050;2023-08-24T03:10:49;10.80;;;6.93;;
14619;SDS011;32125;48.518;9.050;2023-08-24T03:13:15;8.07;;;7.28;;
14619;SDS011;32125;48.518;9.050;2023-08-24T03:15:44;8.35;;;7.40;;
14619;SDS011;32125;48.518;9.050;2023-08-24T03:18:13;9.40;;;6.65;;
14619;SDS011;32125;48.518;9.050;2023-08-24T03:20:39;7.88;;;7.07;;
14619;SDS011;32125;48.518;9.050;2023-08-24T03:23:05;10.57;;;7.07;;
14619;SDS011;32125;48.518;9.050;2023-08-24T03:25:37;10.05;;;7.25;;
14619;SDS011;32125;48.518;9.050;2023-08-24T03:28:04;11.65;;;7.35;;
14619;SDS011;32125;48.518;9.050;2023-08-24T03:30:31;8.48;;;7.57;;
14619;SDS011;32125;48.518;9.050;2023-08-24T03:32:57;8.40;;;7.55;;
14619;SDS011;32125;48.518;9.050;2023-08-24T03:35:27;8.23;;;7.03;;
14619;SDS011;32125;48.518;9.050;2023-08-24T03:37:53;8.10;;;7.40;;
14619;SDS011;32125;48.518;9.050;2023-08-24T03:40:19;8.02;;;7.22;;
14619;SDS011;32125;48.518;9.050;2023-08-24T03:42:47;8.48;;;7.63;;
14619;SDS011;32125;48.518;9.050;2023-08-24T03:45:15;9.15;;;7.90;;
14619;SDS011;32125;48.518;9.050;2023-08-24T03:47:44;8.07;;;7.38;;
14619;SDS011;32125;48.518;9.050;2023-08-24T03:50:10;8.27;;;7.57;;
14619;SDS011;32125;48.518;9.050;2023-08-24T03:52:36;8.52;;;7.75;;
14619;SDS011;32125;48.518;9.050;2023-08-24T03:55:06;9.00;;;8.10;;
14619;SDS011;32125;48.518;9.050;2023-08-24T03:57:35;8.60;;;7.70;;
14619;SDS011;32125;48.518;9.050;2023-08-24T04:00:05;8.43;;;7.57;;
14619;SDS011;32125;48.518;9.050;2023-08-24T04:02:32;10.85;;;7.60;;
14619;SDS011;32125;48.518;9.050;2023-08-24T04:04:58;9.90;;;7.60;;
14619;SDS011;32125;48.518;9.050;2023-08-24T04:07:28;8.95;;;8.15;;
14619;SDS011;32125;48.518;9.050;2023-08-24T04:09:54;8.87;;;7.87;;
14619;SDS011;32125;48.518;9.050;2023-08-24T04:12:19;9.40;;;8.50;;
14619;SDS011;32125;48.518;9.050;2023-08-24T04:14:45;9.32;;;8.52;;
14619;SDS011;32125;48.518;9.050;2023-08-24T04:17:10;8.48;;;7.68;;
14619;SDS011;32125;48.518;9.050;2023-08-24T04:19:39;9.30;;;8.40;;
14619;SDS011;32125;48.518;9.050;2023-08-24T04:22:05;10.88;;;8.20;;
14619;SDS011;32125;48.518;9.050;2023-08-24T04:24:30;10.95;;;8.10;;
14619;SDS011;32125;48.518;9.050;2023-08-24T04:26:56;10.37;;;7.50;;
14619;SDS011;32125;48.518;9.050;2023-08-24T04:29:21;8.37;;;7.57;;
14619;SDS011;32125;48.518;9.050;2023-08-24T04:31:50;8.53;;;7.73;;
14619;SDS011;32125;48.518;9.050;2023-08-24T04:34:15;10.23;;;7.80;;
14619;SDS011;32125;48.518;9.050;2023-08-24T04:36:48;8.27;;;7.47;;
14619;SDS011;32125;48.518;9.050;2023-08-24T04:39:14;8.50;;;7.33;;
14619;SDS011;32125;48.518;9.050;2023-08-24T04:41:43;7.57;;;6.88;;
14619;SDS011;32125;48.518;9.050;2023-08-24T04:44:09;9.37;;;7.57;;
14619;SDS011;32125;48.518;9.050;2023-08-24T04:46:35;8.27;;;7.43;;
14619;SDS011;32125;48.518;9.050;2023-08-24T04:49:05;7.45;;;6.70;;
14619;SDS011;32125;48.518;9.050;2023-08-24T04:51:31;7.95;;;7.13;;
14619;SDS011;32125;48.518;9.050;2023-08-24T04:53:59;9.60;;;7.00;;
14619;SDS011;32125;48.518;9.050;2023-08-24T04:56:27;7.85;;;7.05;;
14619;SDS011;32125;48.518;9.050;2023-08-24T04:58:53;8.02;;;7.22;;
14619;SDS011;32125;48.518;9.050;2023-08-24T05:01:21;11.40;;;7.32;;
14619;SDS011;32125;48.518;9.050;2023-08-24T05:03:50;8.10;;;7.37;;
14619;SDS011;32125;48.518;9.050;2023-08-24T05:06:16;8.02;;;7.22;;
14619;SDS011;32125;48.518;9.050;2023-08-24T05:08:42;7.90;;;7.20;;
14619;SDS011;32125;48.518;9.050;2023-08-24T05:11:16;9.60;;;7.50;;
14619;SDS011;32125;48.518;9.050;2023-08-24T05:13:46;8.60;;;7.45;;
14619;SDS011;32125;48.518;9.050;2023-08-24T05:16:17;11.47;;;7.40;;
14619;SDS011;32125;48.518;9.050;2023-08-24T05:18:43;8.27;;;7.40;;
14619;SDS011;32125;48.518;9.050;2023-08-24T05:21:09;9.32;;;7.50;;
14619;SDS011;32125;48.518;9.050;2023-08-24T05:23:36;8.18;;;7.50;;
14619;SDS011;32125;48.518;9.050;2023-08-24T05:26:02;8.00;;;7.20;;
14619;SDS011;32125;48.518;9.050;2023-08-24T05:28:31;10.20;;;7.50;;
14619;SDS011;32125;48.518;9.050;2023-08-24T05:30:57;8.82;;;7.97;;
14619;SDS011;32125;48.518;9.050;2023-08-24T05:33:25;8.27;;;7.47;;
14619;SDS011;32125;48.518;9.050;2023-08-24T05:35:51;15.13;;;7.80;;
14619;SDS011;32125;48.518;9.050;2023-08-24T05:38:17;8.85;;;7.95;;
14619;SDS011;32125;48.518;9.050;2023-08-24T05:40:43;10.35;;;7.78;;
14619;SDS011;32125;48.518;9.050;2023-08-24T05:43:13;9.88;;;7.68;;
14619;SDS011;32125;48.518;9.050;2023-08-24T05:45:39;8.70;;;7.10;;
14619;SDS011;32125;48.518;9.050;2023-08-24T05:48:06;8.55;;;7.47;;
14619;SDS011;32125;48.518;9.050;2023-08-24T05:50:32;8.32;;;7.32;;
14619;SDS011;32125;48.518;9.050;2023-08-24T05:53:02;8.90;;;8.00;;
14619;SDS011;32125;48.518;9.050;2023-08-24T05:55:28;10.40;;;7.63;;
14619;SDS011;32125;48.518;9.050;2023-08-24T05:57:54;6.80;;;6.20;;
14619;SDS011;32125;48.518;9.050;2023-08-24T06:00:20;8.27;;;6.93;;
14619;SDS011;32125;48.518;9.050;2023-08-24T06:02:47;8.48;;;7.68;;
14619;SDS011;32125;48.518;9.050;2023-08-24T06:05:13;7.90;;;7.00;;
14619;SDS011;32125;48.518;9.050;2023-08-24T06:07:42;13.07;;;7.97;;
14619;SDS011;32125;48.518;9.050;2023-08-24T06:10:08;8.32;;;7.53;;
14619;SDS011;32125;48.518;9.050;2023-08-24T06:12:34;8.18;;;7.38;;
14619;SDS011;32125;48.518;9.050;2023-08-24T06:15:03;7.90;;;7.10;;
14619;SDS011;32125;48.518;9.050;2023-08-24T06:17:32;9.02;;;8.13;;
14619;SDS011;32125;48.518;9.050;2023-08-24T06:20:05;8.40;;;7.57;;
14619;SDS011;32125;48.518;9.050;2023-08-24T06:22:35;8.48;;;7.45;;
14619;SDS011;32125;48.518;9.050;2023-08-24T06:25:05;9.68;;;7.68;;
14619;SDS011;32125;48.518;9.050;2023-08-24T06:27:33;8.70;;;7.75;;
14619;SDS011;32125;48.518;9.050;2023-08-24T06:29:59;9.40;;;8.38;;
14619;SDS011;32125;48.518;9.050;2023-08-24T06:32:27;9.90;;;8.10;;
14619;SDS011;32125;48.518;9.050;2023-08-24T06:34:53;9.52;;;7.65;;
14619;SDS011;32125;48.518;9.050;2023-08-24T06:37:21;13.70;;;7.43;;
14619;SDS011;32125;48.518;9.050;2023-08-24T06:39:49;8.55;;;7.80;;
14619;SDS011;32125;48.518;9.050;2023-08-24T06:42:15;10.48;;;8.15;;
14619;SDS011;32125;48.518;9.050;2023-08-24T06:44:41;13.18;;;8.57;;
14619;SDS011;32125;48.518;9.050;2023-08-24T06:47:07;13.63;;;8.70;;
14619;SDS011;32125;48.518;9.050;2023-08-24T06:49:33;9.63;;;8.30;;
14619;SDS011;32125;48.518;9.050;2023-08-24T06:51:59;7.53;;;6.80;;
14619;SDS011;32125;48.518;9.050;2023-08-24T06:54:25;9.18;;;7.95;;
14619;SDS011;32125;48.518;9.050;2023-08-24T06:56:54;8.43;;;7.47;;
14619;SDS011;32125;48.518;9.050;2023-08-24T06:59:20;9.32;;;7.78;;
14619;SDS011;32125;48.518;9.050;2023-08-24T07:01:51;9.70;;;8.10;;
14619;SDS011;32125;48.518;9.050;2023-08-24T07:04:17;8.75;;;7.90;;
14619;SDS011;32125;48.518;9.050;2023-08-24T07:06:43;8.73;;;7.32;;
14619;SDS011;32125;48.518;9.050;2023-08-24T07:09:09;7.55;;;6.65;;
14619;SDS011;32125;48.518;9.050;2023-08-24T07:11:38;11.20;;;7.90;;
14619;SDS011;32125;48.518;9.050;2023-08-24T07:14:04;8.25;;;7.43;;
14619;SDS011;32125;48.518;9.050;2023-08-24T07:16:30;9.13;;;7.78;;
14619;SDS011;32125;48.518;9.050;2023-08-24T07:18:56;10.43;;;7.75;;
14619;SDS011;32125;48.518;9.050;2023-08-24T07:21:22;8.02;;;7.15;;
14619;SDS011;32125;48.518;9.050;2023-08-24T07:23:48;8.27;;;7.40;;
14619;SDS011;32125;48.518;9.050;2023-08-24T07:26:14;7.53;;;6.65;;
14619;SDS011;32125;48.518;9.050;2023-08-24T07:28:42;10.98;;;7.68;;
14619;SDS011;32125;48.518;9.050;2023-08-24T07:31:11;7.60;;;6.88;;
14619;SDS011;32125;48.518;9.050;2023-08-24T07:33:38;8.32;;;7.13;;
14619;SDS011;32125;48.518;9.050;2023-08-24T07:36:09;8.43;;;7.63;;
14619;SDS011;32125;48.518;9.050;2023-08-24T07:38:38;10.77;;;7.65;;
14619;SDS011;32125;48.518;9.050;2023-08-24T07:41:04;8.30;;;7.50;;
14619;SDS011;32125;48.518;9.050;2023-08-24T07:43:31;9.02;;;7.03;;
14619;SDS011;32125;48.518;9.050;2023-08-24T07:45:57;8.48;;;7.57;;
14619;SDS011;32125;48.518;9.050;2023-08-24T07:48:23;9.70;;;7.00;;
14619;SDS011;32125;48.518;9.050;2023-08-24T07:50:49;8.23;;;7.30;;
14619;SDS011;32125;48.518;9.050;2023-08-24T07:53:15;10.38;;;8.05;;
14619;SDS011;32125;48.518;9.050;2023-08-24T07:55:41;10.20;;;7.18;;
14619;SDS011;32125;48.518;9.050;2023-08-24T07:58:08;8.50;;;7.30;;
14619;SDS011;32125;48.518;9.050;2023-08-24T08:00:34;9.77;;;6.63;;
14619;SDS011;32125;48.518;9.050;2023-08-24T08:03:00;8.52;;;6.78;;
14619;SDS011;32125;48.518;9.050;2023-08-24T08:05:26;7.20;;;6.50;;
14619;SDS011;32125;48.518;9.050;2023-08-24T08:07:52;7.35;;;6.50;;
14619;SDS011;32125;48.518;9.050;2023-08-24T08:10:18;6.47;;;5.82;;
14619;SDS011;32125;48.518;9.050;2023-08-24T08:12:46;6.10;;;5.50;;
14619;SDS011;32125;48.518;9.050;2023-08-24T08:15:11;5.90;;;5.30;;
14619;SDS011;32125;48.518;9.050;2023-08-24T08:17:37;7.50;;;5.60;;
14619;SDS011;32125;48.518;9.050;2023-08-24T08:20:05;7.35;;;4.90;;
14619;SDS011;32125;48.518;9.050;2023-08-24T08:22:32;8.13;;;5.32;;
14619;SDS011;32125;48.518;9.050;2023-08-24T08:25:03;6.65;;;5.15;;
14619;SDS011;32125;48.518;9.050;2023-08-24T08:27:29;6.90;;;4.85;;
14619;SDS011;32125;48.518;9.050;2023-08-24T08:29:55;6.22;;;4.78;;
14619;SDS011;32125;48.518;9.050;2023-08-24T08:32:25;4.97;;;4.55;;
14619;SDS011;32125;48.518;9.050;2023-08-24T08:34:55;4.95;;;4.53;;
14619;SDS011;32125;48.518;9.050;2023-08-24T08:37:22;7.13;;;5.00;;
14619;SDS011;32125;48.518;9.050;2023-08-24T08:39:48;5.53;;;4.60;;
14619;SDS011;32125;48.518;9.050;2023-08-24T08:42:14;7.05;;;4.43;;
14619;SDS011;32125;48.518;9.050;2023-08-24T08:44:46;6.75;;;4.70;;
14619;SDS011;32125;48.518;9.050;2023-08-24T08:47:13;6.40;;;4.57;;
14619;SDS011;32125;48.518;9.050;2023-08-24T08:49:43;4.18;;;3.88;;
14619;SDS011;32125;48.518;9.050;2023-08-24T08:52:10;5.07;;;4.25;;
14619;SDS011;32125;48.518;9.050;2023-08-24T08:54:38;8.05;;;4.53;;
14619;SDS011;32125;48.518;9.050;2023-08-24T08:57:05;5.20;;;4.05;;
14619;SDS011;32125;48.518;9.050;2023-08-24T08:59:34;6.28;;;4.70;;
14619;SDS011;32125;48.518;9.050;2023-08-24T09:02:02;6.55;;;4.88;;
14619;SDS011;32125;48.518;9.050;2023-08-24T09:04:31;4.78;;;4.28;;
14619;SDS011;32125;48.518;9.050;2023-08-24T09:06:59;4.68;;;3.85;;
14619;SDS011;32125;48.518;9.050;2023-08-24T09:09:35;7.05;;;3.97;;
14619;SDS011;32125;48.518;9.050;2023-08-24T09:12:02;5.95;;;4.05;;
14619;SDS011;32125;48.518;9.050;2023-08-24T09:14:30;6.18;;;3.97;;
14619;SDS011;32125;48.518;9.050;2023-08-24T09:16:56;4.32;;;3.92;;
14619;SDS011;32125;48.518;9.050;2023-08-24T09:19:32;5.35;;;3.83;;
14619;SDS011;32125;48.518;9.050;2023-08-24T09:22:05;4.47;;;3.97;;
14619;SDS011;32125;48.518;9.050;2023-08-24T09:27:00;4.85;;;4.10;;
14619;SDS011;32125;48.518;9.050;2023-08-24T09:29:38;4.82;;;4.10;;
14619;SDS011;32125;48.518;9.050;2023-08-24T09:32:05;4.60;;;3.80;;
14619;SDS011;32125;48.518;9.050;2023-08-24T09:34:33;5.13;;;3.80;;
14619;SDS011;32125;48.518;9.050;2023-08-24T09:37:00;5.15;;;3.95;;
14619;SDS011;32125;48.518;9.050;2023-08-24T09:39:31;4.43;;;3.75;;
14619;SDS011;32125;48.518;9.050;2023-08-24T09:41:59;4.82;;;3.70;;
14619;SDS011;32125;48.518;9.050;2023-08-24T09:44:29;5.38;;;3.97;;
14619;SDS011;32125;48.518;9.050;2023-08-24T09:46:55;4.63;;;3.60;;
14619;SDS011;32125;48.518;9.050;2023-08-24T09:49:23;7.80;;;3.70;;
14619;SDS011;32125;48.518;9.050;2023-08-24T09:51:55;6.10;;;3.90;;
14619;SDS011;32125;48.518;9.050;2023-08-24T09:54:24;6.47;;;3.50;;
14619;SDS011;32125;48.518;9.050;2023-08-24T09:56:52;8.45;;;4.03;;
14619;SDS011;32125;48.518;9.050;2023-08-24T09:59:20;4.38;;;3.75;;
14619;SDS011;32125;48.518;9.050;2023-08-24T10:01:51;5.93;;;4.03;;
14619;SDS011;32125;48.518;9.050;2023-08-24T10:04:23;4.43;;;3.60;;
14619;SDS011;32125;48.518;9.050;2023-08-24T10:06:55;5.90;;;3.60;;
14619;SDS011;32125;48.518;9.050;2023-08-24T10:09:37;8.10;;;3.97;;
14619;SDS011;32125;48.518;9.050;2023-08-24T10:12:04;4.45;;;3.40;;
14619;SDS011;32125;48.518;9.050;2023-08-24T10:17:11;8.70;;;4.30;;
14619;SDS011;32125;48.518;9.050;2023-08-24T10:19:41;4.20;;;3.80;;
14619;SDS011;32125;48.518;9.050;2023-08-24T10:22:10;5.93;;;3.72;;
14619;SDS011;32125;48.518;9.050;2023-08-24T10:24:37;6.95;;;4.22;;
14619;SDS011;32125;48.518;9.050;2023-08-24T10:27:03;5.00;;;4.07;;
14619;SDS011;32125;48.518;9.050;2023-08-24T10:29:34;4.43;;;4.03;;
14619;SDS011;32125;48.518;9.050;2023-08-24T10:32:00;7.70;;;4.50;;
14619;SDS011;32125;48.518;9.050;2023-08-24T10:34:30;6.93;;;4.35;;
14619;SDS011;32125;48.518;9.050;2023-08-24T10:36:55;6.55;;;4.07;;
14619;SDS011;32125;48.518;9.050;2023-08-24T10:39:28;5.50;;;3.90;;
14619;SDS011;32125;48.518;9.050;2023-08-24T10:41:54;5.88;;;4.40;;
14619;SDS011;32125;48.518;9.050;2023-08-24T10:44:21;6.20;;;4.30;;
14619;SDS011;32125;48.518;9.050;2023-08-24T10:47:14;4.40;;;4.00;;
14619;SDS011;32125;48.518;9.050;2023-08-24T10:49:57;4.40;;;4.00;;
14619;SDS011;32125;48.518;9.050;2023-08-24T10:54:57;4.93;;;4.05;;
14619;SDS011;32125;48.518;9.050;2023-08-24T10:57:27;5.97;;;4.40;;
14619;SDS011;32125;48.518;9.050;2023-08-24T11:00:03;8.55;;;4.57;;
14619;SDS011;32125;48.518;9.050;2023-08-24T11:02:40;5.47;;;4.53;;
14619;SDS011;32125;48.518;9.050;2023-08-24T11:05:17;7.28;;;4.47;;
14619;SDS011;32125;48.518;9.050;2023-08-24T11:07:59;5.85;;;4.40;;
14619;SDS011;32125;48.518;9.050;2023-08-24T11:10:31;6.28;;;4.28;;
14619;SDS011;32125;48.518;9.050;2023-08-24T11:13:10;4.68;;;4.10;;
14619;SDS011;32125;48.518;9.050;2023-08-24T11:23:25;6.60;;;4.35;;
14619;SDS011;32125;48.518;9.050;2023-08-24T11:25:52;7.60;;;4.75;;
14619;SDS011;32125;48.518;9.050;2023-08-24T11:28:23;6.32;;;4.30;;
14619;SDS011;32125;48.518;9.050;2023-08-24T11:30:50;5.07;;;4.50;;
14619;SDS011;32125;48.518;9.050;2023-08-24T11:33:17;5.70;;;4.20;;
14619;SDS011;32125;48.518;9.050;2023-08-24T11:35:47;4.63;;;4.00;;
14619;SDS011;32125;48.518;9.050;2023-08-24T11:38:16;4.93;;;4.38;;
14619;SDS011;32125;48.518;9.050;2023-08-24T11:40:42;6.75;;;4.40;;
14619;SDS011;32125;48.518;9.050;2023-08-24T11:43:09;7.47;;;4.80;;
14619;SDS011;32125;48.518;9.050;2023-08-24T11:45:37;5.40;;;4.38;;
14619;SDS011;32125;48.518;9.050;2023-08-24T11:48:05;6.75;;;4.45;;
14619;SDS011;32125;48.518;9.050;2023-08-24T11:50:35;6.03;;;4.00;;
14619;SDS011;32125;48.518;9.050;2023-08-24T11:53:03;4.28;;;3.88;;
14619;SDS011;32125;48.518;9.050;2023-08-24T11:55:32;7.78;;;4.13;;
14619;SDS011;32125;48.518;9.050;2023-08-24T11:57:57;4.38;;;3.97;;
14619;SDS011;32125;48.518;9.050;2023-08-24T12:00:23;10.95;;;4.20;;
14619;SDS011;32125;48.518;9.050;2023-08-24T12:02:49;7.00;;;4.38;;
14619;SDS011;32125;48.518;9.050;2023-08-24T12:05:19;6.85;;;4.60;;
14619;SDS011;32125;48.518;9.050;2023-08-24T12:07:48;6.55;;;4.28;;
14619;SDS011;32125;48.518;9.050;2023-08-24T12:10:14;6.65;;;4.20;;
14619;SDS011;32125;48.518;9.050;2023-08-24T12:12:40;7.82;;;4.60;;
14619;SDS011;32125;48.518;9.050;2023-08-24T12:15:05;5.95;;;4.40;;
14619;SDS011;32125;48.518;9.050;2023-08-24T12:17:43;5.25;;;4.38;;
14619;SDS011;32125;48.518;9.050;2023-08-24T12:20:16;7.70;;;4.72;;
14619;SDS011;32125;48.518;9.050;2023-08-24T12:22:53;9.27;;;4.35;;
14619;SDS011;32125;48.518;9.050;2023-08-24T12:25:22;6.03;;;4.40;;
14619;SDS011;32125;48.518;9.050;2023-08-24T12:27:49;10.57;;;4.50;;
14619;SDS011;32125;48.518;9.050;2023-08-24T12:30:15;6.97;;;4.40;;
14619;SDS011;32125;48.518;9.050;2023-08-24T12:32:42;7.63;;;4.35;;
14619;SDS011;32125;48.518;9.050;2023-08-24T12:35:09;8.20;;;4.18;;
14619;SDS011;32125;48.518;9.050;2023-08-24T12:37:35;4.90;;;4.47;;
14619;SDS011;32125;48.518;9.050;2023-08-24T12:40:03;9.38;;;4.30;;
14619;SDS011;32125;48.518;9.050;2023-08-24T12:42:30;6.75;;;4.30;;
14619;SDS011;32125;48.518;9.050;2023-08-24T12:44:56;7.05;;;4.60;;
14619;SDS011;32125;48.518;9.050;2023-08-24T12:47:26;6.97;;;4.80;;
14619;SDS011;32125;48.518;9.050;2023-08-24T12:49:52;10.40;;;4.78;;
14619;SDS011;32125;48.518;9.050;2023-08-24T12:52:22;5.32;;;4.45;;
14619;SDS011;32125;48.518;9.050;2023-08-24T12:54:50;6.22;;;4.53;;
14619;SDS011;32125;48.518;9.050;2023-08-24T12:57:15;9.77;;;4.78;;
14619;SDS011;32125;48.518;9.050;2023-08-24T12:59:41;7.50;;;4.55;;
14619;SDS011;32125;48.518;9.050;2023-08-24T13:02:09;7.38;;;4.63;;
14619;SDS011;32125;48.518;9.050;2023-08-24T13:04:38;6.95;;;4.50;;
14619;SDS011;32125;48.518;9.050;2023-08-24T13:07:06;7.00;;;4.70;;
14619;SDS011;32125;48.518;9.050;2023-08-24T13:09:31;6.88;;;4.75;;
14619;SDS011;32125;48.518;9.050;2023-08-24T13:11:59;7.47;;;4.88;;
14619;SDS011;32125;48.518;9.050;2023-08-24T13:14:27;8.55;;;4.80;;
14619;SDS011;32125;48.518;9.050;2023-08-24T13:16:56;8.70;;;5.10;;
14619;SDS011;32125;48.518;9.050;2023-08-24T13:19:22;8.27;;;4.60;;
14619;SDS011;32125;48.518;9.050;2023-08-24T13:21:47;7.00;;;4.50;;
14619;SDS011;32125;48.518;9.050;2023-08-24T13:24:13;11.68;;;4.72;;
14619;SDS011;32125;48.518;9.050;2023-08-24T13:26:39;7.53;;;4.47;;
14619;SDS011;32125;48.518;9.050;2023-08-24T13:29:05;6.15;;;4.50;;
14619;SDS011;32125;48.518;9.050;2023-08-24T13:31:30;8.05;;;4.53;;
14619;SDS011;32125;48.518;9.050;2023-08-24T13:33:56;8.13;;;5.07;;
14619;SDS011;32125;48.518;9.050;2023-08-24T13:36:24;9.50;;;4.70;;
14619;SDS011;32125;48.518;9.050;2023-08-24T13:38:50;7.13;;;4.90;;
14619;SDS011;32125;48.518;9.050;2023-08-24T13:41:17;11.38;;;4.70;;
14619;SDS011;32125;48.518;9.050;2023-08-24T13:43:43;12.85;;;5.28;;
14619;SDS011;32125;48.518;9.050;2023-08-24T13:46:09;10.90;;;5.35;;
14619;SDS011;32125;48.518;9.050;2023-08-24T13:48:35;7.38;;;5.00;;
14619;SDS011;32125;48.518;9.050;2023-08-24T13:51:04;10.57;;;5.20;;
14619;SDS011;32125;48.518;9.050;2023-08-24T13:53:30;9.32;;;4.80;;
14619;SDS011;32125;48.518;9.050;2023-08-24T13:56:00;8.07;;;4.57;;
14619;SDS011;32125;48.518;9.050;2023-08-24T13:58:28;7.97;;;4.88;;
14619;SDS011;32125;48.518;9.050;2023-08-24T14:00:55;10.02;;;4.82;;
14619;SDS011;32125;48.518;9.050;2023-08-24T14:03:21;8.25;;;5.30;;
14619;SDS011;32125;48.518;9.050;2023-08-24T14:05:47;7.95;;;5.05;;
14619;SDS011;32125;48.518;9.050;2023-08-24T14:08:14;11.30;;;5.10;;
14619;SDS011;32125;48.518;9.050;2023-08-24T14:10:40;9.82;;;4.53;;
14619;SDS011;32125;48.518;9.050;2023-08-24T14:13:06;11.77;;;5.40;;
14619;SDS011;32125;48.518;9.050;2023-08-24T14:15:34;9.40;;;4.75;;
14619;SDS011;32125;48.518;9.050;2023-08-24T14:18:00;8.50;;;4.75;;
14619;SDS011;32125;48.518;9.050;2023-08-24T14:20:26;8.25;;;4.60;;
14619;SDS011;32125;48.518;9.050;2023-08-24T14:22:54;6.80;;;4.60;;
14619;SDS011;32125;48.518;9.050;2023-08-24T14:25:19;12.13;;;4.60;;
14619;SDS011;32125;48.518;9.050;2023-08-24T14:27:45;9.85;;;4.88;;
14619;SDS011;32125;48.518;9.050;2023-08-24T14:30:13;6.55;;;4.50;;
14619;SDS011;32125;48.518;9.050;2023-08-24T14:32:39;10.60;;;4.57;;
14619;SDS011;32125;48.518;9.050;2023-08-24T14:35:06;9.23;;;4.72;;
14619;SDS011;32125;48.518;9.050;2023-08-24T14:37:32;6.25;;;4.50;;
14619;SDS011;32125;48.518;9.050;2023-08-24T14:39:58;6.90;;;4.43;;
14619;SDS011;32125;48.518;9.050;2023-08-24T14:42:24;8.57;;;4.38;;
14619;SDS011;32125;48.518;9.050;2023-08-24T14:44:51;6.78;;;4.40;;
14619;SDS011;32125;48.518;9.050;2023-08-24T14:47:17;6.88;;;4.70;;
14619;SDS011;32125;48.518;9.050;2023-08-24T14:49:48;8.68;;;4.55;;
14619;SDS011;32125;48.518;9.050;2023-08-24T14:52:16;7.72;;;4.15;;
14619;SDS011;32125;48.518;9.050;2023-08-24T14:54:41;8.90;;;4.60;;
14619;SDS011;32125;48.518;9.050;2023-08-24T14:57:07;12.75;;;4.82;;
14619;SDS011;32125;48.518;9.050;2023-08-24T14:59:33;9.88;;;5.05;;
14619;SDS011;32125;48.518;9.050;2023-08-24T15:02:03;9.27;;;4.60;;
14619;SDS011;32125;48.518;9.050;2023-08-24T15:04:29;9.45;;;4.97;;
14619;SDS011;32125;48.518;9.050;2023-08-24T15:06:55;11.18;;;4.50;;
14619;SDS011;32125;48.518;9.050;2023-08-24T15:09:20;9.82;;;4.38;;